createdAt,value
2022-10-17T00:02:12.223Z,100.00
2022-10-17T00:07:16.124Z,100.00
2022-10-17T00:12:18.702Z,100.00
2022-10-17T00:17:21.262Z,100.00
2022-10-17T00:22:25.214Z,100.00
2022-10-17T00:27:28.138Z,100.00
2022-10-17T00:32:31.092Z,100.00
2022-10-17T00:37:35.645Z,100.00
2022-10-17T00:42:38.261Z,100.00
2022-10-17T00:47:41.061Z,100.00
2022-10-17T00:52:45.525Z,100.00
2022-10-17T00:57:48.343Z,100.00
2022-10-17T01:02:50.951Z,100.00
2022-10-17T01:07:55.289Z,100.00
2022-10-17T01:13:04.300Z,100.00
2022-10-17T01:18:14.530Z,100.00
2022-10-17T01:23:32.064Z,100.00
2022-10-17T01:28:49.621Z,100.00
2022-10-17T01:34:01.568Z,100.00
2022-10-17T01:39:09.396Z,100.00
2022-10-17T01:44:14.892Z,100.00
2022-10-17T01:49:22.967Z,100.00
2022-10-17T01:54:27.136Z,100.00
2022-10-17T01:59:34.905Z,100.00
2022-10-17T02:04:38.898Z,100.00
2022-10-17T02:09:41.544Z,100.00
2022-10-17T02:14:55.095Z,100.00
2022-10-17T02:20:09.206Z,100.00
2022-10-17T02:25:16.194Z,100.00
2022-10-17T02:30:24.855Z,100.00
2022-10-17T02:35:31.831Z,100.00
2022-10-17T02:40:34.778Z,100.00
2022-10-17T02:45:38.831Z,100.00
2022-10-17T02:50:50.405Z,100.00
2022-10-17T02:55:55.105Z,100.00
2022-10-17T03:00:57.995Z,100.00
2022-10-17T03:06:02.019Z,100.00
2022-10-17T03:11:04.661Z,100.00
2022-10-17T03:16:09.551Z,100.00
2022-10-17T03:21:13.621Z,100.00
2022-10-17T03:26:16.460Z,100.00
2022-10-17T03:31:19.137Z,100.00
2022-10-17T03:36:24.346Z,100.00
2022-10-17T03:41:27.103Z,100.00
2022-10-17T03:46:30.163Z,100.00
2022-10-17T03:51:36.756Z,100.00
2022-10-17T03:56:44.732Z,100.00
2022-10-17T04:01:50.900Z,100.00
2022-10-17T04:06:56.034Z,100.00
2022-10-17T04:11:58.782Z,100.00
2022-10-17T04:17:01.773Z,100.00
2022-10-17T04:22:08.404Z,100.00
2022-10-17T04:27:13.226Z,100.00
2022-10-17T04:32:19.802Z,100.00
2022-10-17T04:37:46.617Z,100.00
2022-10-17T04:42:54.239Z,100.00
2022-10-17T04:48:01.955Z,100.00
2022-10-17T04:53:05.962Z,100.00
2022-10-17T04:58:08.716Z,100.00
2022-10-17T05:03:11.635Z,100.00
2022-10-17T05:08:15.715Z,100.00
2022-10-17T05:13:18.419Z,100.00
2022-10-17T05:18:21.195Z,100.00
2022-10-17T05:23:25.412Z,100.00
2022-10-17T05:28:28.383Z,100.00
2022-10-17T05:33:35.005Z,100.00
2022-10-17T05:38:39.166Z,100.00
2022-10-17T05:43:43.802Z,100.00
2022-10-17T05:48:48.727Z,100.00
2022-10-17T05:53:53.880Z,100.00
2022-10-17T05:59:02.643Z,100.00
2022-10-17T06:04:21.660Z,100.00
2022-10-17T06:09:28.598Z,100.00
2022-10-17T06:14:32.430Z,100.00
2022-10-17T06:19:38.003Z,98.42
2022-10-17T06:24:42.268Z,100.00
2022-10-17T06:29:44.904Z,97.76
2022-10-17T06:34:47.644Z,95.87
2022-10-17T06:39:52.595Z,95.22
2022-10-17T06:44:57.822Z,91.80
2022-10-17T06:50:17.597Z,89.44
2022-10-17T06:55:27.991Z,87.73
2022-10-17T07:00:50.995Z,85.16
2022-10-17T07:05:54.875Z,86.90
2022-10-17T07:10:59.643Z,78.86
2022-10-17T07:16:02.634Z,82.09
2022-10-17T07:21:08.526Z,79.88
2022-10-17T07:26:14.489Z,76.66
2022-10-17T07:31:19.321Z,72.98
2022-10-17T07:36:22.072Z,74.10
2022-10-17T07:41:26.738Z,70.47
2022-10-17T07:46:29.725Z,66.81
2022-10-17T07:51:32.406Z,65.61
2022-10-17T07:56:36.648Z,63.38
2022-10-17T08:01:39.344Z,62.15
2022-10-17T08:06:41.897Z,59.42
2022-10-17T08:11:46.279Z,58.29
2022-10-17T08:16:48.843Z,56.25
2022-10-17T08:21:52.286Z,57.82
2022-10-17T08:26:58.124Z,55.59
2022-10-17T08:32:02.353Z,55.69
2022-10-17T08:37:05.660Z,54.24
2022-10-17T08:42:26.342Z,54.09
2022-10-17T08:47:30.806Z,54.58
2022-10-17T08:52:37.863Z,52.94
2022-10-17T08:57:41.794Z,52.53
2022-10-17T09:02:51.928Z,52.76
2022-10-17T09:08:03.102Z,52.14
2022-10-17T09:13:19.530Z,51.66
2022-10-17T09:18:26.971Z,51.33
2022-10-17T09:23:32.990Z,50.94
2022-10-17T09:28:39.005Z,51.40
2022-10-17T09:33:53.989Z,51.77
2022-10-17T09:38:58.551Z,52.14
2022-10-17T09:44:12.882Z,53.68
2022-10-17T09:49:18.615Z,55.32
2022-10-17T09:54:23.498Z,58.60
2022-10-17T09:59:38.535Z,61.27
2022-10-17T10:05:03.805Z,69.11
2022-10-17T10:10:09.216Z,77.66
2022-10-17T10:15:35.353Z,98.09
2022-10-17T10:20:38.631Z,100.00
2022-10-17T10:25:53.490Z,100.00
2022-10-17T10:30:58.878Z,100.00
2022-10-17T10:36:03.670Z,100.00
2022-10-17T10:41:07.854Z,100.00
2022-10-17T10:46:20.493Z,100.00
2022-10-17T10:51:28.045Z,100.00
2022-10-17T10:56:34.581Z,100.00
2022-10-17T11:01:43.493Z,100.00
2022-10-17T11:06:46.561Z,100.00
2022-10-17T11:11:53.951Z,100.00
2022-10-17T11:17:04.016Z,100.00
2022-10-17T11:22:10.400Z,100.00
2022-10-17T11:27:12.844Z,100.00
2022-10-17T11:32:21.774Z,100.00
2022-10-17T11:37:27.456Z,100.00
2022-10-17T11:42:33.480Z,100.00
2022-10-17T11:47:43.442Z,100.00
2022-10-17T11:52:56.824Z,100.00
2022-10-17T11:58:13.176Z,100.00
2022-10-17T12:03:30.402Z,100.00
2022-10-17T12:08:39.164Z,100.00
2022-10-17T12:13:49.721Z,100.00
2022-10-17T12:19:24.744Z,100.00
2022-10-17T12:24:39.945Z,100.00
2022-10-17T12:29:42.542Z,100.00
2022-10-17T12:34:54.121Z,100.00
2022-10-17T12:39:56.740Z,100.00
2022-10-17T12:44:59.356Z,100.00
2022-10-17T12:50:03.315Z,100.00
2022-10-17T12:55:14.196Z,100.00
2022-10-17T13:00:21.345Z,100.00
2022-10-17T13:05:29.631Z,100.00
2022-10-17T13:10:34.231Z,100.00
2022-10-17T13:15:37.698Z,100.00
2022-10-17T13:20:41.605Z,100.00
2022-10-17T13:25:44.176Z,100.00
2022-10-17T13:30:49.622Z,100.00
2022-10-17T13:36:00.364Z,100.00
2022-10-17T13:41:33.706Z,100.00
2022-10-17T13:46:39.278Z,100.00
2022-10-17T13:51:45.775Z,100.00
2022-10-17T13:56:48.422Z,100.00
2022-10-17T14:01:52.090Z,100.00
2022-10-17T14:06:56.254Z,100.00
2022-10-17T14:12:02.136Z,100.00
2022-10-17T14:17:14.259Z,100.00
2022-10-17T14:22:19.487Z,100.00
2022-10-17T14:27:28.855Z,100.00
2022-10-17T14:37:44.776Z,100.00
2022-10-17T14:42:48.218Z,100.00
2022-10-17T14:47:51.486Z,100.00
2022-10-17T14:53:03.789Z,100.00
2022-10-17T14:58:17.555Z,100.00
2022-10-17T15:03:20.229Z,100.00
2022-10-17T15:08:25.223Z,100.00
2022-10-17T15:13:29.661Z,100.00
2022-10-17T15:18:34.025Z,100.00
2022-10-17T15:23:37.970Z,100.00
2022-10-17T15:28:40.595Z,100.00
2022-10-17T15:33:43.696Z,100.00
2022-10-17T15:38:47.767Z,100.00
2022-10-17T15:43:50.458Z,100.00
2022-10-17T15:48:53.478Z,100.00
2022-10-17T15:53:57.600Z,100.00
2022-10-17T15:59:00.261Z,100.00
2022-10-17T16:04:02.867Z,100.00
2022-10-17T16:09:06.774Z,100.00
2022-10-17T16:14:12.691Z,100.00
2022-10-17T16:19:16.194Z,100.00
2022-10-17T16:24:20.333Z,100.00
2022-10-17T16:29:22.963Z,100.00
2022-10-17T16:34:25.538Z,100.00
2022-10-17T16:39:29.481Z,100.00
2022-10-17T16:44:32.080Z,100.00
2022-10-17T16:49:34.702Z,100.00
2022-10-17T16:54:38.850Z,100.00
2022-10-17T16:59:42.482Z,100.00
2022-10-17T17:04:45.198Z,100.00
2022-10-17T17:09:49.127Z,100.00
2022-10-17T17:14:52.084Z,100.00
2022-10-17T17:19:55.531Z,100.00
2022-10-17T17:24:59.500Z,100.00
2022-10-17T17:30:02.124Z,100.00
2022-10-17T17:35:05.065Z,100.00
2022-10-17T17:40:10.183Z,100.00
2022-10-17T17:45:13.235Z,100.00
2022-10-17T17:50:15.894Z,100.00
2022-10-17T17:55:19.987Z,100.00
2022-10-17T18:00:22.573Z,100.00
2022-10-17T18:05:25.417Z,100.00
2022-10-17T18:10:30.223Z,100.00
2022-10-17T18:15:32.904Z,100.00
2022-10-17T18:20:36.039Z,100.00
2022-10-17T18:25:40.043Z,100.00
2022-10-17T18:30:42.624Z,100.00
2022-10-17T18:35:45.251Z,100.00
2022-10-17T18:40:50.781Z,100.00
2022-10-17T18:45:57.372Z,100.00
2022-10-17T18:50:59.858Z,100.00
2022-10-17T18:56:03.977Z,100.00
2022-10-17T19:01:09.353Z,100.00
2022-10-17T19:06:13.662Z,100.00
2022-10-17T19:11:19.530Z,100.00
2022-10-17T19:16:23.705Z,100.00
2022-10-17T19:21:26.488Z,100.00
2022-10-17T19:26:32.303Z,100.00
2022-10-17T19:31:36.400Z,100.00
2022-10-17T19:36:39.494Z,100.00
2022-10-17T19:41:44.059Z,100.00
2022-10-17T19:46:48.895Z,100.00
2022-10-17T19:51:51.498Z,100.00
2022-10-17T19:56:55.439Z,100.00
2022-10-17T20:01:58.106Z,100.00
2022-10-17T20:07:01.328Z,100.00
2022-10-17T20:12:05.484Z,100.00
2022-10-17T20:17:08.078Z,100.00
2022-10-17T20:22:10.693Z,100.00
2022-10-17T20:27:14.623Z,100.00
2022-10-17T20:32:17.230Z,100.00
2022-10-17T20:37:19.840Z,100.00
2022-10-17T20:42:23.771Z,100.00
2022-10-17T20:47:43.689Z,100.00
2022-10-17T20:52:48.485Z,100.00
2022-10-17T20:57:54.826Z,100.00
2022-10-17T21:02:58.990Z,100.00
2022-10-17T21:08:02.572Z,100.00
2022-10-17T21:13:06.475Z,100.00
2022-10-17T21:18:09.043Z,100.00
2022-10-17T21:23:11.640Z,100.00
2022-10-17T21:28:15.588Z,100.00
2022-10-17T21:33:18.180Z,99.49
2022-10-17T21:38:20.791Z,98.20
2022-10-17T21:43:24.726Z,96.28
2022-10-17T21:48:27.398Z,94.36
2022-10-17T21:53:30.540Z,93.08
2022-10-17T21:58:34.826Z,90.64
2022-10-17T22:03:42.597Z,88.84
2022-10-17T22:08:48.486Z,88.39
2022-10-17T22:13:55.900Z,86.02
2022-10-17T22:19:03.127Z,85.23
2022-10-17T22:24:11.165Z,84.79
2022-10-17T22:29:15.307Z,82.25
2022-10-17T22:34:18.556Z,80.40
2022-10-17T22:39:21.435Z,79.03
2022-10-17T22:44:28.014Z,77.83
2022-10-17T22:49:30.934Z,77.41
2022-10-17T22:54:33.709Z,75.97
2022-10-17T22:59:37.757Z,74.33
2022-10-17T23:04:41.237Z,73.10
2022-10-17T23:09:44.108Z,72.40
2022-10-17T23:14:48.112Z,71.37
2022-10-17T23:19:52.951Z,70.92
2022-10-17T23:24:58.135Z,69.19
2022-10-17T23:30:02.146Z,68.38
2022-10-17T23:35:04.926Z,67.23
2022-10-17T23:40:09.068Z,65.54
2022-10-17T23:45:13.420Z,64.35
2022-10-17T23:50:16.342Z,64.02
2022-10-17T23:55:18.962Z,63.42
